sensor_id;sensor_type;location;lat;lon;timestamp;pressure;altitude;pressure_sealevel;temperature;humidity
21547;BME280;41275;51.912;4.388;2023-04-25T00:03:07;101153.88;;;13.44;46.87
21547;BME280;41275;51.912;4.388;2023-04-25T00:08:30;101155.75;;;13.32;47.28
21547;BME280;41275;51.912;4.388;2023-04-25T00:13:51;101144.91;;;13.22;47.73
21547;BME280;41275;51.912;4.388;2023-04-25T00:19:12;101139.03;;;13.08;47.49
21547;BME280;41275;51.912;4.388;2023-04-25T00:24:34;101158.13;;;13.05;47.70
21547;BME280;41275;51.912;4.388;2023-04-25T00:29:55;101162.75;;;12.98;47.52
21547;BME280;41275;51.912;4.388;2023-04-25T00:35:17;101155.16;;;12.90;47.69
21547;BME280;41275;51.912;4.388;2023-04-25T00:40:38;101157.66;;;12.96;47.61
21547;BME280;41275;51.912;4.388;2023-04-25T00:46:00;101170.00;;;13.14;47.38
21547;BME280;41275;51.912;4.388;2023-04-25T00:51:22;101169.16;;;13.37;46.50
21547;BME280;41275;51.912;4.388;2023-04-25T00:56:43;101165.88;;;13.47;46.39
21547;BME280;41275;51.912;4.388;2023-04-25T01:02:06;101176.28;;;13.48;46.19
21547;BME280;41275;51.912;4.388;2023-04-25T01:07:28;101171.06;;;13.54;46.01
21547;BME280;41275;51.912;4.388;2023-04-25T01:12:49;101174.56;;;13.71;45.77
21547;BME280;41275;51.912;4.388;2023-04-25T01:18:11;101182.28;;;13.84;45.56
21547;BME280;41275;51.912;4.388;2023-04-25T01:23:33;101176.16;;;13.84;45.43
21547;BME280;41275;51.912;4.388;2023-04-25T01:28:54;101176.56;;;13.92;45.27
21547;BME280;41275;51.912;4.388;2023-04-25T01:34:15;101194.13;;;13.93;44.98
21547;BME280;41275;51.912;4.388;2023-04-25T01:39:37;101189.53;;;13.89;44.80
21547;BME280;41275;51.912;4.388;2023-04-25T01:44:58;101194.06;;;13.88;44.81
21547;BME280;41275;51.912;4.388;2023-04-25T01:50:19;101195.91;;;13.88;44.65
21547;BME280;41275;51.912;4.388;2023-04-25T01:55:41;101201.84;;;13.95;44.00
21547;BME280;41275;51.912;4.388;2023-04-25T02:01:02;101205.97;;;13.86;43.46
21547;BME280;41275;51.912;4.388;2023-04-25T02:06:23;101207.25;;;13.83;42.77
21547;BME280;41275;51.912;4.388;2023-04-25T02:11:44;101204.03;;;13.81;42.39
21547;BME280;41275;51.912;4.388;2023-04-25T02:17:06;101207.81;;;13.85;42.31
21547;BME280;41275;51.912;4.388;2023-04-25T02:22:27;101200.09;;;13.84;41.99
21547;BME280;41275;51.912;4.388;2023-04-25T02:27:51;101205.06;;;13.80;41.95
21547;BME280;41275;51.912;4.388;2023-04-25T02:33:12;101202.63;;;13.79;41.94
21547;BME280;41275;51.912;4.388;2023-04-25T02:38:33;101209.59;;;13.80;42.14
21547;BME280;41275;51.912;4.388;2023-04-25T02:43:55;101211.75;;;13.83;41.83
21547;BME280;41275;51.912;4.388;2023-04-25T02:49:16;101207.25;;;13.83;42.15
21547;BME280;41275;51.912;4.388;2023-04-25T02:54:38;101211.53;;;13.84;42.16
21547;BME280;41275;51.912;4.388;2023-04-25T02:59:59;101205.16;;;13.85;42.60
21547;BME280;41275;51.912;4.388;2023-04-25T03:05:21;101202.59;;;13.90;42.47
21547;BME280;41275;51.912;4.388;2023-04-25T03:10:42;101210.34;;;13.92;42.68
21547;BME280;41275;51.912;4.388;2023-04-25T03:16:03;101207.69;;;13.92;42.60
21547;BME280;41275;51.912;4.388;2023-04-25T03:21:25;101212.75;;;13.93;43.15
21547;BME280;41275;51.912;4.388;2023-04-25T03:26:47;101216.22;;;13.94;42.75
21547;BME280;41275;51.912;4.388;2023-04-25T03:32:08;101208.81;;;13.96;42.90
21547;BME280;41275;51.912;4.388;2023-04-25T03:37:29;101214.63;;;13.93;43.22
21547;BME280;41275;51.912;4.388;2023-04-25T03:42:51;101219.22;;;13.97;43.14
21547;BME280;41275;51.912;4.388;2023-04-25T03:48:12;101225.13;;;13.99;42.80
21547;BME280;41275;51.912;4.388;2023-04-25T03:53:33;101228.66;;;14.05;42.38
21547;BME280;41275;51.912;4.388;2023-04-25T03:58:54;101241.50;;;14.08;42.67
21547;BME280;41275;51.912;4.388;2023-04-25T04:04:15;101263.59;;;13.28;42.65
21547;BME280;41275;51.912;4.388;2023-04-25T04:09:36;101254.13;;;12.20;44.73
21547;BME280;41275;51.912;4.388;2023-04-25T04:14:58;101252.56;;;11.82;45.49
21547;BME280;41275;51.912;4.388;2023-04-25T04:20:19;101253.38;;;11.83;45.57
21547;BME280;41275;51.912;4.388;2023-04-25T04:25:40;101251.75;;;12.00;44.89
21547;BME280;41275;51.912;4.388;2023-04-25T04:31:02;101251.47;;;12.20;44.44
21547;BME280;41275;51.912;4.388;2023-04-25T04:36:24;101259.47;;;12.32;44.59
21547;BME280;41275;51.912;4.388;2023-04-25T04:41:47;101258.31;;;12.27;44.58
21547;BME280;41275;51.912;4.388;2023-04-25T04:47:08;101266.84;;;12.29;44.63
21547;BME280;41275;51.912;4.388;2023-04-25T04:52:31;101274.44;;;12.26;44.91
21547;BME280;41275;51.912;4.388;2023-04-25T04:57:52;101276.97;;;12.21;45.25
21547;BME280;41275;51.912;4.388;2023-04-25T05:03:14;101276.03;;;12.15;45.46
21547;BME280;41275;51.912;4.388;2023-04-25T05:08:36;101286.31;;;12.23;45.67
21547;BME280;41275;51.912;4.388;2023-04-25T05:13:57;101303.50;;;12.51;45.48
21547;BME280;41275;51.912;4.388;2023-04-25T05:19:18;101319.94;;;12.83;45.73
21547;BME280;41275;51.912;4.388;2023-04-25T05:24:39;101321.56;;;12.96;45.72
21547;BME280;41275;51.912;4.388;2023-04-25T05:30:01;101323.66;;;13.17;45.63
21547;BME280;41275;51.912;4.388;2023-04-25T05:35:22;101345.06;;;13.58;45.78
21547;BME280;41275;51.912;4.388;2023-04-25T05:40:43;101346.88;;;13.81;45.29
21547;BME280;41275;51.912;4.388;2023-04-25T05:46:31;101361.09;;;13.63;44.79
21547;BME280;41275;51.912;4.388;2023-04-25T05:51:55;101360.22;;;13.57;44.82
21547;BME280;41275;51.912;4.388;2023-04-25T05:57:25;101368.53;;;13.61;44.65
21547;BME280;41275;51.912;4.388;2023-04-25T06:02:46;101367.94;;;13.70;44.38
21547;BME280;41275;51.912;4.388;2023-04-25T06:08:08;101380.88;;;13.79;43.73
21547;BME280;41275;51.912;4.388;2023-04-25T06:13:29;101386.09;;;13.73;43.63
21547;BME280;41275;51.912;4.388;2023-04-25T06:18:50;101400.78;;;13.76;43.40
21547;BME280;41275;51.912;4.388;2023-04-25T06:24:17;101402.53;;;14.11;43.05
21547;BME280;41275;51.912;4.388;2023-04-25T06:29:38;101406.63;;;14.42;42.40
21547;BME280;41275;51.912;4.388;2023-04-25T06:34:59;101413.22;;;14.51;42.40
21547;BME280;41275;51.912;4.388;2023-04-25T06:40:21;101417.03;;;14.55;41.60
21547;BME280;41275;51.912;4.388;2023-04-25T06:45:42;101424.50;;;14.18;42.70
21547;BME280;41275;51.912;4.388;2023-04-25T06:51:03;101425.84;;;14.04;43.77
21547;BME280;41275;51.912;4.388;2023-04-25T06:56:24;101426.97;;;14.19;43.90
21547;BME280;41275;51.912;4.388;2023-04-25T07:01:45;101431.97;;;14.04;44.40
21547;BME280;41275;51.912;4.388;2023-04-25T07:07:07;101436.66;;;14.25;44.24
21547;BME280;41275;51.912;4.388;2023-04-25T07:12:28;101430.44;;;14.60;43.86
21547;BME280;41275;51.912;4.388;2023-04-25T07:17:49;101434.16;;;15.05;43.27
21547;BME280;41275;51.912;4.388;2023-04-25T07:23:10;101442.56;;;15.30;41.96
21547;BME280;41275;51.912;4.388;2023-04-25T07:28:31;101442.09;;;15.50;41.18
21547;BME280;41275;51.912;4.388;2023-04-25T07:33:52;101444.63;;;15.95;40.13
21547;BME280;41275;51.912;4.388;2023-04-25T07:39:14;101445.94;;;16.15;39.32
21547;BME280;41275;51.912;4.388;2023-04-25T07:44:35;101454.69;;;15.88;38.68
21547;BME280;41275;51.912;4.388;2023-04-25T07:49:59;101459.31;;;15.42;38.54
21547;BME280;41275;51.912;4.388;2023-04-25T07:55:21;101454.34;;;15.51;37.75
21547;BME280;41275;51.912;4.388;2023-04-25T08:00:42;101472.09;;;15.74;37.16
21547;BME280;41275;51.912;4.388;2023-04-25T08:06:04;101477.25;;;15.47;36.52
21547;BME280;41275;51.912;4.388;2023-04-25T08:11:25;101480.78;;;15.36;36.84
21547;BME280;41275;51.912;4.388;2023-04-25T08:16:46;101503.91;;;15.13;37.26
21547;BME280;41275;51.912;4.388;2023-04-25T08:22:08;101524.50;;;15.18;37.08
21547;BME280;41275;51.912;4.388;2023-04-25T08:27:29;101526.16;;;15.86;36.24
21547;BME280;41275;51.912;4.388;2023-04-25T08:32:51;101525.13;;;16.70;34.81
21547;BME280;41275;51.912;4.388;2023-04-25T08:38:12;101532.03;;;16.44;34.00
21547;BME280;41275;51.912;4.388;2023-04-25T08:43:34;101552.56;;;16.22;34.38
21547;BME280;41275;51.912;4.388;2023-04-25T08:49:02;101555.19;;;16.16;34.59
21547;BME280;41275;51.912;4.388;2023-04-25T08:54:23;101569.41;;;16.22;34.46
21547;BME280;41275;51.912;4.388;2023-04-25T08:59:48;101565.13;;;16.21;35.16
21547;BME280;41275;51.912;4.388;2023-04-25T09:05:12;101574.84;;;16.49;35.02
21547;BME280;41275;51.912;4.388;2023-04-25T09:10:34;101580.66;;;16.63;35.10
21547;BME280;41275;51.912;4.388;2023-04-25T09:15:57;101598.66;;;16.51;34.22
21547;BME280;41275;51.912;4.388;2023-04-25T09:21:22;101595.59;;;16.81;33.32
21547;BME280;41275;51.912;4.388;2023-04-25T09:26:43;101603.06;;;17.28;32.72
21547;BME280;41275;51.912;4.388;2023-04-25T09:32:19;101600.19;;;16.85;32.87
21547;BME280;41275;51.912;4.388;2023-04-25T09:37:40;101607.03;;;16.76;33.17
21547;BME280;41275;51.912;4.388;2023-04-25T09:43:01;101613.84;;;17.11;32.73
21547;BME280;41275;51.912;4.388;2023-04-25T09:48:25;101616.19;;;17.29;32.10
21547;BME280;41275;51.912;4.388;2023-04-25T09:53:53;101623.97;;;17.31;32.35
21547;BME280;41275;51.912;4.388;2023-04-25T09:59:21;101632.94;;;17.74;32.40
21547;BME280;41275;51.912;4.388;2023-04-25T10:04:45;101633.81;;;17.79;32.12
21547;BME280;41275;51.912;4.388;2023-04-25T10:10:08;101642.03;;;17.18;32.61
21547;BME280;41275;51.912;4.388;2023-04-25T10:15:34;101641.53;;;17.00;32.98
21547;BME280;41275;51.912;4.388;2023-04-25T10:21:00;101646.97;;;17.32;31.81
21547;BME280;41275;51.912;4.388;2023-04-25T10:26:21;101655.16;;;17.47;32.50
21547;BME280;41275;51.912;4.388;2023-04-25T10:31:46;101655.81;;;16.88;31.92
21547;BME280;41275;51.912;4.388;2023-04-25T10:37:09;101663.22;;;16.81;31.96
21547;BME280;41275;51.912;4.388;2023-04-25T10:42:31;101654.50;;;17.35;32.19
21547;BME280;41275;51.912;4.388;2023-04-25T10:47:53;101658.47;;;17.32;31.92
21547;BME280;41275;51.912;4.388;2023-04-25T10:53:15;101657.44;;;17.33;32.77
21547;BME280;41275;51.912;4.388;2023-04-25T10:58:41;101655.81;;;17.81;32.33
21547;BME280;41275;51.912;4.388;2023-04-25T11:04:03;101670.84;;;18.20;32.45
21547;BME280;41275;51.912;4.388;2023-04-25T11:09:24;101663.25;;;18.11;32.64
21547;BME280;41275;51.912;4.388;2023-04-25T11:14:46;101670.53;;;17.57;32.78
21547;BME280;41275;51.912;4.388;2023-04-25T11:20:07;101675.50;;;18.34;32.87
21547;BME280;41275;51.912;4.388;2023-04-25T11:25:32;101674.63;;;17.91;33.03
21547;BME280;41275;51.912;4.388;2023-04-25T11:30:53;101685.34;;;17.64;32.85
21547;BME280;41275;51.912;4.388;2023-04-25T11:36:14;101690.53;;;17.05;33.14
21547;BME280;41275;51.912;4.388;2023-04-25T11:41:37;101698.63;;;17.10;32.81
21547;BME280;41275;51.912;4.388;2023-04-25T11:46:58;101682.34;;;17.61;32.35
21547;BME280;41275;51.912;4.388;2023-04-25T11:52:20;101689.28;;;17.35;31.13
21547;BME280;41275;51.912;4.388;2023-04-25T11:57:42;101708.88;;;17.40;30.84
21547;BME280;41275;51.912;4.388;2023-04-25T12:03:04;101699.75;;;17.63;30.90
21547;BME280;41275;51.912;4.388;2023-04-25T12:08:25;101717.53;;;17.97;30.72
21547;BME280;41275;51.912;4.388;2023-04-25T12:13:51;101702.94;;;17.82;30.98
21547;BME280;41275;51.912;4.388;2023-04-25T12:19:15;101711.41;;;17.52;31.21
21547;BME280;41275;51.912;4.388;2023-04-25T12:24:52;101724.97;;;18.91;30.37
21547;BME280;41275;51.912;4.388;2023-04-25T12:30:14;101726.97;;;19.21;30.31
21547;BME280;41275;51.912;4.388;2023-04-25T12:35:36;101735.59;;;18.11;31.19
21547;BME280;41275;51.912;4.388;2023-04-25T12:40:58;101730.38;;;19.84;29.98
21547;BME280;41275;51.912;4.388;2023-04-25T12:46:19;101742.94;;;21.17;28.14
21547;BME280;41275;51.912;4.388;2023-04-25T12:51:40;101743.53;;;22.08;26.98
21547;BME280;41275;51.912;4.388;2023-04-25T12:57:02;101744.56;;;22.75;25.95
21547;BME280;41275;51.912;4.388;2023-04-25T13:02:23;101732.22;;;22.05;25.16
21547;BME280;41275;51.912;4.388;2023-04-25T13:07:45;101738.66;;;22.10;26.00
21547;BME280;41275;51.912;4.388;2023-04-25T13:13:06;101745.22;;;23.39;24.99
21547;BME280;41275;51.912;4.388;2023-04-25T13:18:28;101741.34;;;24.53;24.03
21547;BME280;41275;51.912;4.388;2023-04-25T13:23:49;101754.38;;;24.32;24.11
21547;BME280;41275;51.912;4.388;2023-04-25T13:29:11;101740.84;;;23.43;23.96
21547;BME280;41275;51.912;4.388;2023-04-25T13:34:32;101763.41;;;24.09;23.37
21547;BME280;41275;51.912;4.388;2023-04-25T13:39:53;101766.16;;;23.04;24.16
21547;BME280;41275;51.912;4.388;2023-04-25T13:45:16;101763.81;;;23.83;23.74
21547;BME280;41275;51.912;4.388;2023-04-25T13:50:37;101768.06;;;22.74;25.34
21547;BME280;41275;51.912;4.388;2023-04-25T13:55:59;101772.09;;;20.84;26.72
21547;BME280;41275;51.912;4.388;2023-04-25T14:01:20;101771.19;;;19.13;29.10
21547;BME280;41275;51.912;4.388;2023-04-25T14:06:42;101779.97;;;19.51;29.16
21547;BME280;41275;51.912;4.388;2023-04-25T14:12:03;101770.06;;;22.64;26.55
21547;BME280;41275;51.912;4.388;2023-04-25T14:17:24;101770.09;;;22.88;25.50
21547;BME280;41275;51.912;4.388;2023-04-25T14:22:46;101772.22;;;24.66;23.04
21547;BME280;41275;51.912;4.388;2023-04-25T14:28:07;101771.66;;;24.96;22.40
21547;BME280;41275;51.912;4.388;2023-04-25T14:33:29;101772.47;;;26.33;21.67
21547;BME280;41275;51.912;4.388;2023-04-25T14:38:51;101786.34;;;26.32;20.44
21547;BME280;41275;51.912;4.388;2023-04-25T14:44:15;101786.56;;;27.72;20.53
21547;BME280;41275;51.912;4.388;2023-04-25T14:49:36;101792.97;;;27.59;20.07
21547;BME280;41275;51.912;4.388;2023-04-25T14:55:00;101799.59;;;25.75;21.16
21547;BME280;41275;51.912;4.388;2023-04-25T15:00:25;101794.81;;;23.24;23.07
21547;BME280;41275;51.912;4.388;2023-04-25T15:05:47;101791.97;;;20.06;26.13
21547;BME280;41275;51.912;4.388;2023-04-25T15:11:08;101795.53;;;19.02;28.07
21547;BME280;41275;51.912;4.388;2023-04-25T15:16:31;101796.56;;;20.37;27.38
21547;BME280;41275;51.912;4.388;2023-04-25T15:21:53;101809.72;;;20.38;27.57
21547;BME280;41275;51.912;4.388;2023-04-25T15:27:14;101798.91;;;18.82;29.36
21547;BME280;41275;51.912;4.388;2023-04-25T15:32:35;101805.16;;;20.18;28.46
21547;BME280;41275;51.912;4.388;2023-04-25T15:37:56;101820.06;;;21.62;25.92
21547;BME280;41275;51.912;4.388;2023-04-25T15:43:18;101827.78;;;20.58;26.40
21547;BME280;41275;51.912;4.388;2023-04-25T15:48:39;101810.44;;;19.77;27.22
21547;BME280;41275;51.912;4.388;2023-04-25T15:54:00;101815.44;;;18.42;28.73
21547;BME280;41275;51.912;4.388;2023-04-25T15:59:24;101825.16;;;17.94;28.70
21547;BME280;41275;51.912;4.388;2023-04-25T16:04:45;101824.88;;;17.51;28.93
21547;BME280;41275;51.912;4.388;2023-04-25T16:10:08;101840.72;;;17.36;29.30
21547;BME280;41275;51.912;4.388;2023-04-25T16:15:29;101838.91;;;17.20;29.52
21547;BME280;41275;51.912;4.388;2023-04-25T16:20:52;101845.94;;;17.09;29.95
21547;BME280;41275;51.912;4.388;2023-04-25T16:26:13;101833.31;;;17.04;29.99
21547;BME280;41275;51.912;4.388;2023-04-25T16:31:34;101836.59;;;17.28;30.08
21547;BME280;41275;51.912;4.388;2023-04-25T16:36:56;101846.16;;;17.63;30.02
21547;BME280;41275;51.912;4.388;2023-04-25T16:42:17;101848.88;;;17.85;29.87
21547;BME280;41275;51.912;4.388;2023-04-25T16:47:39;101849.66;;;17.25;30.46
21547;BME280;41275;51.912;4.388;2023-04-25T16:53:00;101840.03;;;18.33;29.84
21547;BME280;41275;51.912;4.388;2023-04-25T16:58:21;101841.19;;;20.38;27.45
21547;BME280;41275;51.912;4.388;2023-04-25T17:03:43;101857.41;;;19.70;27.21
21547;BME280;41275;51.912;4.388;2023-04-25T17:09:04;101865.69;;;20.97;25.80
21547;BME280;41275;51.912;4.388;2023-04-25T17:14:26;101863.25;;;21.26;25.82
21547;BME280;41275;51.912;4.388;2023-04-25T17:19:47;101855.69;;;18.74;27.66
21547;BME280;41275;51.912;4.388;2023-04-25T17:25:08;101859.44;;;17.53;29.59
21547;BME280;41275;51.912;4.388;2023-04-25T17:30:30;101863.31;;;18.87;29.73
21547;BME280;41275;51.912;4.388;2023-04-25T17:35:52;101860.28;;;21.38;27.04
21547;BME280;41275;51.912;4.388;2023-04-25T17:41:14;101858.84;;;22.60;26.64
21547;BME280;41275;51.912;4.388;2023-04-25T17:46:35;101860.16;;;19.85;27.97
21547;BME280;41275;51.912;4.388;2023-04-25T17:51:57;101869.34;;;19.52;28.89
21547;BME280;41275;51.912;4.388;2023-04-25T17:57:18;101886.00;;;20.01;28.84
21547;BME280;41275;51.912;4.388;2023-04-25T18:02:42;101886.53;;;18.22;30.19
21547;BME280;41275;51.912;4.388;2023-04-25T18:08:05;101891.25;;;18.64;29.97
21547;BME280;41275;51.912;4.388;2023-04-25T18:13:26;101888.22;;;18.82;29.22
21547;BME280;41275;51.912;4.388;2023-04-25T18:18:47;101896.69;;;17.21;31.03
21547;BME280;41275;51.912;4.388;2023-04-25T18:24:15;101892.09;;;16.25;32.60
21547;BME280;41275;51.912;4.388;2023-04-25T18:29:40;101888.03;;;15.70;33.53
21547;BME280;41275;51.912;4.388;2023-04-25T18:35:04;101883.50;;;15.24;34.06
21547;BME280;41275;51.912;4.388;2023-04-25T18:40:25;101888.56;;;14.90;35.26
21547;BME280;41275;51.912;4.388;2023-04-25T18:45:47;101887.34;;;14.63;35.76
21547;BME280;41275;51.912;4.388;2023-04-25T18:51:08;101898.78;;;14.52;36.36
21547;BME280;41275;51.912;4.388;2023-04-25T18:56:29;101899.47;;;14.29;36.66
21547;BME280;41275;51.912;4.388;2023-04-25T19:01:50;101890.16;;;14.19;37.46
21547;BME280;41275;51.912;4.388;2023-04-25T19:07:13;101897.72;;;14.04;38.00
21547;BME280;41275;51.912;4.388;2023-04-25T19:12:34;101901.34;;;13.91;38.40
21547;BME280;41275;51.912;4.388;2023-04-25T19:17:56;101905.56;;;13.81;39.03
21547;BME280;41275;51.912;4.388;2023-04-25T19:23:17;101913.97;;;13.78;39.37
21547;BME280;41275;51.912;4.388;2023-04-25T19:28:41;101923.44;;;13.73;39.22
21547;BME280;41275;51.912;4.388;2023-04-25T19:34:06;101924.75;;;13.64;39.45
21547;BME280;41275;51.912;4.388;2023-04-25T19:39:27;101928.13;;;13.53;39.14
21547;BME280;41275;51.912;4.388;2023-04-25T19:44:52;101928.19;;;13.46;38.74
21547;BME280;41275;51.912;4.388;2023-04-25T19:50:13;101934.16;;;13.42;38.70
21547;BME280;41275;51.912;4.388;2023-04-25T19:55:34;101934.97;;;13.42;38.91
21547;BME280;41275;51.912;4.388;2023-04-25T20:00:55;101938.28;;;13.38;38.84
21547;BME280;41275;51.912;4.388;2023-04-25T20:06:19;101945.28;;;13.32;38.65
21547;BME280;41275;51.912;4.388;2023-04-25T20:11:41;101939.00;;;13.26;39.16
21547;BME280;41275;51.912;4.388;2023-04-25T20:17:02;101939.78;;;13.27;39.25
21547;BME280;41275;51.912;4.388;2023-04-25T20:22:24;101943.09;;;13.22;39.11
21547;BME280;41275;51.912;4.388;2023-04-25T20:27:48;101940.25;;;13.17;39.05
21547;BME280;41275;51.912;4.388;2023-04-25T20:33:09;101949.25;;;13.16;39.23
21547;BME280;41275;51.912;4.388;2023-04-25T20:38:31;101940.31;;;13.11;39.19
21547;BME280;41275;51.912;4.388;2023-04-25T20:43:52;101942.56;;;13.07;39.43
21547;BME280;41275;51.912;4.388;2023-04-25T20:49:14;101947.50;;;13.03;39.71
21547;BME280;41275;51.912;4.388;2023-04-25T20:54:35;101938.75;;;12.96;39.73
21547;BME280;41275;51.912;4.388;2023-04-25T20:59:57;101944.69;;;12.98;39.85
21547;BME280;41275;51.912;4.388;2023-04-25T21:05:18;101955.28;;;13.05;39.83
21547;BME280;41275;51.912;4.388;2023-04-25T21:10:42;101942.38;;;13.09;39.95
21547;BME280;41275;51.912;4.388;2023-04-25T21:16:03;101945.47;;;13.06;39.80
21547;BME280;41275;51.912;4.388;2023-04-25T21:21:25;101941.38;;;13.03;40.33
21547;BME280;41275;51.912;4.388;2023-04-25T21:26:47;101936.56;;;12.93;40.13
21547;BME280;41275;51.912;4.388;2023-04-25T21:32:08;101944.13;;;12.90;40.38
21547;BME280;41275;51.912;4.388;2023-04-25T21:37:29;101946.66;;;12.78;40.67
21547;BME280;41275;51.912;4.388;2023-04-25T21:42:50;101955.41;;;12.85;40.72
21547;BME280;41275;51.912;4.388;2023-04-25T21:48:13;101952.63;;;13.05;40.59
21547;BME280;41275;51.912;4.388;2023-04-25T21:53:34;101963.56;;;13.15;41.04
21547;BME280;41275;51.912;4.388;2023-04-25T21:58:56;101963.25;;;13.37;40.97
21547;BME280;41275;51.912;4.388;2023-04-25T22:04:17;101964.97;;;13.49;40.70
21547;BME280;41275;51.912;4.388;2023-04-25T22:09:39;101959.41;;;13.33;41.43
21547;BME280;41275;51.912;4.388;2023-04-25T22:15:00;101963.97;;;13.19;41.58
21547;BME280;41275;51.912;4.388;2023-04-25T22:20:21;101965.03;;;13.11;41.72
21547;BME280;41275;51.912;4.388;2023-04-25T22:25:45;101969.63;;;12.97;41.95
21547;BME280;41275;51.912;4.388;2023-04-25T22:31:07;101974.59;;;12.87;42.07
21547;BME280;41275;51.912;4.388;2023-04-25T22:36:29;101968.84;;;12.90;41.96
21547;BME280;41275;51.912;4.388;2023-04-25T22:41:50;101971.72;;;12.89;42.27
21547;BME280;41275;51.912;4.388;2023-04-25T22:47:11;101976.66;;;12.85;42.22
21547;BME280;41275;51.912;4.388;2023-04-25T22:52:32;101978.53;;;12.78;42.21
21547;BME280;41275;51.912;4.388;2023-04-25T22:57:54;101969.16;;;12.69;42.97
21547;BME280;41275;51.912;4.388;2023-04-25T23:03:16;101975.13;;;12.64;43.36
21547;BME280;41275;51.912;4.388;2023-04-25T23:08:38;101966.75;;;12.61;43.36
21547;BME280;41275;51.912;4.388;2023-04-25T23:14:01;101978.00;;;12.56;43.77
21547;BME280;41275;51.912;4.388;2023-04-25T23:19:23;101983.94;;;12.58;44.19
21547;BME280;41275;51.912;4.388;2023-04-25T23:24:44;101973.09;;;12.60;44.21
21547;BME280;41275;51.912;4.388;2023-04-25T23:30:06;101954.97;;;12.50;44.40
21547;BME280;41275;51.912;4.388;2023-04-25T23:35:28;101961.91;;;12.51;43.97
21547;BME280;41275;51.912;4.388;2023-04-25T23:40:49;101959.28;;;12.44;44.19
21547;BME280;41275;51.912;4.388;2023-04-25T23:46:11;101964.59;;;12.38;44.37
21547;BME280;41275;51.912;4.388;2023-04-25T23:51:32;101966.91;;;12.27;44.51
21547;BME280;41275;51.912;4.388;2023-04-25T23:56:53;101955.47;;;12.20;44.84
